createdAt,value
2017-11-25T00:00:23.226Z,88.49
2017-11-25T00:02:49.661Z,88.51
2017-11-25T00:05:16.107Z,88.29
2017-11-25T00:07:42.538Z,88.43
2017-11-25T00:10:08.964Z,88.62
2017-11-25T00:12:36.122Z,88.60
2017-11-25T00:15:02.447Z,88.58
2017-11-25T00:17:28.966Z,88.23
2017-11-25T00:19:55.409Z,88.32
2017-11-25T00:22:21.783Z,88.15
2017-11-25T00:24:48.141Z,88.41
2017-11-25T00:27:14.518Z,88.34
2017-11-25T00:29:41.754Z,88.20
2017-11-25T00:32:08.104Z,87.94
2017-11-25T00:34:34.435Z,88.12
2017-11-25T00:37:00.974Z,88.25
2017-11-25T00:39:27.408Z,88.36
2017-11-25T00:41:53.812Z,88.10
2017-11-25T00:44:20.285Z,88.12
2017-11-25T00:46:47.326Z,88.30
2017-11-25T00:49:13.770Z,88.33
2017-11-25T00:51:40.195Z,88.29
2017-11-25T00:54:06.638Z,88.30
2017-11-25T00:56:33.167Z,88.50
2017-11-25T00:58:59.604Z,88.92
2017-11-25T01:01:26.037Z,88.86
2017-11-25T01:03:53.197Z,88.80
2017-11-25T01:06:19.622Z,89.04
2017-11-25T01:08:46.068Z,89.07
2017-11-25T01:11:12.492Z,89.01
2017-11-25T01:13:38.934Z,88.76
2017-11-25T01:16:05.369Z,88.96
2017-11-25T01:18:31.796Z,89.16
2017-11-25T01:20:59.050Z,89.12
2017-11-25T01:23:25.492Z,89.05
2017-11-25T01:25:51.920Z,89.07
2017-11-25T01:28:18.287Z,89.19
2017-11-25T01:30:44.684Z,89.16
2017-11-25T01:33:11.119Z,89.22
2017-11-25T01:35:37.555Z,89.06
2017-11-25T01:38:04.710Z,88.90
2017-11-25T01:40:31.243Z,88.78
2017-11-25T01:42:57.680Z,88.79
2017-11-25T01:45:24.121Z,88.57
2017-11-25T01:47:50.555Z,88.32
2017-11-25T01:50:16.982Z,88.25
2017-11-25T01:52:43.519Z,88.21
2017-11-25T01:55:10.578Z,87.75
2017-11-25T01:57:37.014Z,87.61
2017-11-25T02:00:03.442Z,87.71
2017-11-25T02:02:29.874Z,87.89
2017-11-25T02:04:56.309Z,87.87
2017-11-25T02:07:22.750Z,87.83
2017-11-25T02:09:49.184Z,88.13
2017-11-25T02:12:16.429Z,88.19
2017-11-25T02:14:42.966Z,88.08
2017-11-25T02:17:09.410Z,88.33
2017-11-25T02:19:35.770Z,88.19
2017-11-25T02:22:02.136Z,88.30
2017-11-25T02:24:28.577Z,87.92
2017-11-25T02:26:55.028Z,88.19
2017-11-25T02:29:22.197Z,88.48
2017-11-25T02:31:48.624Z,89.07
2017-11-25T02:34:15.161Z,89.09
2017-11-25T02:36:41.599Z,89.01
2017-11-25T02:39:08.034Z,89.04
2017-11-25T02:41:34.477Z,88.97
2017-11-25T02:44:00.900Z,89.45
2017-11-25T02:46:28.154Z,90.03
2017-11-25T02:48:54.588Z,90.27
2017-11-25T02:51:21.023Z,90.07
2017-11-25T02:53:47.457Z,90.04
2017-11-25T02:56:13.906Z,89.90
2017-11-25T02:58:40.327Z,89.95
2017-11-25T03:01:06.774Z,89.99
2017-11-25T03:03:34.014Z,89.88
2017-11-25T03:06:00.457Z,90.16
2017-11-25T03:08:26.896Z,90.25
2017-11-25T03:10:53.319Z,90.54
2017-11-25T03:13:19.762Z,90.62
2017-11-25T03:15:46.188Z,90.54
2017-11-25T03:18:12.630Z,90.55
2017-11-25T03:20:39.875Z,90.42
2017-11-25T03:23:06.310Z,90.24
2017-11-25T03:25:32.754Z,90.05
2017-11-25T03:27:59.221Z,90.31
2017-11-25T03:30:25.590Z,90.30
2017-11-25T03:32:52.034Z,90.56
2017-11-25T03:35:18.493Z,90.71
2017-11-25T03:37:45.703Z,90.87
2017-11-25T03:40:12.171Z,90.84
2017-11-25T03:42:38.606Z,90.79
2017-11-25T03:45:05.045Z,90.46
2017-11-25T03:47:31.477Z,90.25
2017-11-25T03:49:57.910Z,90.35
2017-11-25T03:52:24.351Z,90.15
2017-11-25T03:54:51.599Z,90.40
2017-11-25T03:57:18.034Z,90.51
2017-11-25T03:59:44.468Z,90.74
2017-11-25T04:02:10.911Z,90.89
2017-11-25T04:04:37.346Z,91.03
2017-11-25T04:07:03.745Z,91.11
2017-11-25T04:09:30.207Z,91.29
2017-11-25T04:11:57.359Z,91.25
2017-11-25T04:14:23.759Z,91.32
2017-11-25T04:16:50.238Z,91.47
2017-11-25T04:19:16.696Z,91.73
2017-11-25T04:21:43.213Z,91.79
2017-11-25T04:24:09.634Z,91.75
2017-11-25T04:26:36.083Z,91.91
2017-11-25T04:29:03.323Z,92.09
2017-11-25T04:31:29.724Z,91.92
2017-11-25T04:33:56.200Z,91.91
2017-11-25T04:36:22.625Z,91.67
2017-11-25T04:38:49.062Z,91.40
2017-11-25T04:41:15.496Z,91.79
2017-11-25T04:43:41.929Z,91.57
2017-11-25T04:46:09.090Z,91.47
2017-11-25T04:48:35.515Z,91.53
2017-11-25T04:51:01.959Z,91.33
2017-11-25T04:53:28.390Z,91.32
2017-11-25T04:55:54.923Z,91.34
2017-11-25T04:58:21.365Z,91.33
2017-11-25T05:00:47.803Z,91.46
2017-11-25T05:03:14.841Z,91.53
2017-11-25T05:05:41.283Z,91.64
2017-11-25T05:08:07.711Z,91.46
2017-11-25T05:10:34.145Z,90.80
2017-11-25T05:13:00.588Z,90.62
2017-11-25T05:15:27.013Z,90.61
2017-11-25T05:17:53.458Z,90.92
2017-11-25T05:20:20.534Z,91.38
2017-11-25T05:22:46.931Z,91.43
2017-11-25T05:25:13.372Z,91.58
2017-11-25T05:27:39.734Z,91.61
2017-11-25T05:30:06.079Z,91.69
2017-11-25T05:32:32.465Z,91.77
2017-11-25T05:34:58.798Z,91.56
2017-11-25T05:37:26.063Z,91.63
2017-11-25T05:39:52.385Z,91.69
2017-11-25T05:42:18.831Z,91.76
2017-11-25T05:44:45.358Z,91.86
2017-11-25T05:47:11.728Z,91.56
2017-11-25T05:49:38.085Z,91.39
2017-11-25T05:52:04.563Z,91.62
2017-11-25T05:54:31.717Z,91.73
2017-11-25T05:56:58.154Z,91.73
2017-11-25T05:59:24.578Z,91.53
2017-11-25T06:01:50.996Z,91.04
2017-11-25T06:04:17.446Z,90.93
2017-11-25T06:06:43.882Z,90.97
2017-11-25T06:09:10.324Z,91.17
2017-11-25T06:11:37.578Z,91.40
2017-11-25T06:14:04.004Z,91.43
2017-11-25T06:16:30.336Z,91.32
2017-11-25T06:18:56.771Z,91.30
2017-11-25T06:21:23.214Z,91.22
2017-11-25T06:23:49.622Z,91.17
2017-11-25T06:26:16.040Z,91.11
2017-11-25T06:28:43.226Z,91.27
2017-11-25T06:31:09.664Z,91.28
2017-11-25T06:33:36.105Z,91.25
2017-11-25T06:36:02.542Z,91.18
2017-11-25T06:38:28.950Z,90.64
2017-11-25T06:40:55.403Z,90.50
2017-11-25T06:43:21.835Z,90.15
2017-11-25T06:45:49.099Z,90.19
2017-11-25T06:48:15.524Z,90.15
2017-11-25T06:50:41.957Z,90.17
2017-11-25T06:53:08.393Z,90.26
2017-11-25T06:55:34.827Z,89.99
2017-11-25T06:58:01.272Z,89.56
2017-11-25T07:00:27.664Z,89.62
2017-11-25T07:02:54.856Z,89.10
2017-11-25T07:05:21.282Z,89.16
2017-11-25T07:07:47.716Z,89.18
2017-11-25T07:10:14.152Z,88.89
2017-11-25T07:12:40.591Z,88.55
2017-11-25T07:15:07.126Z,88.05
2017-11-25T07:17:33.864Z,87.89
2017-11-25T07:20:00.720Z,87.80
2017-11-25T07:22:27.144Z,87.57
2017-11-25T07:24:53.586Z,87.79
2017-11-25T07:27:20.013Z,88.08
2017-11-25T07:29:46.652Z,87.41
2017-11-25T07:32:13.096Z,85.84
2017-11-25T07:34:39.634Z,85.39
2017-11-25T07:37:06.068Z,85.48
2017-11-25T07:39:32.494Z,85.40
2017-11-25T07:52:04.224Z,84.90
2017-11-25T07:54:30.660Z,85.10
2017-11-25T07:56:57.922Z,85.16
2017-11-25T08:04:27.567Z,84.95
2017-11-25T08:06:54.010Z,85.52
2017-11-25T08:09:20.540Z,86.06
2017-11-25T08:11:47.069Z,86.07
2017-11-25T08:14:13.502Z,86.65
2017-11-25T08:16:39.938Z,87.10
2017-11-25T08:19:06.576Z,86.95
2017-11-25T08:21:33.122Z,86.98
2017-11-25T08:23:59.557Z,86.41
2017-11-25T08:26:25.998Z,86.19
2017-11-25T08:28:52.529Z,85.95
2017-11-25T08:31:19.160Z,85.66
2017-11-25T08:33:45.603Z,85.64
2017-11-25T08:36:12.047Z,85.87
2017-11-25T08:38:38.677Z,85.03
2017-11-25T08:41:05.105Z,85.37
2017-11-25T08:43:31.760Z,84.51
2017-11-25T08:45:58.602Z,84.67
2017-11-25T08:48:25.125Z,84.71
2017-11-25T08:50:51.875Z,84.82
2017-11-25T08:53:18.301Z,84.52
2017-11-25T08:55:44.933Z,84.68
2017-11-25T08:58:11.578Z,85.19
2017-11-25T09:00:38.091Z,84.89
2017-11-25T09:03:04.664Z,85.14
2017-11-25T09:05:31.621Z,85.14
2017-11-25T09:07:58.241Z,84.58
2017-11-25T09:10:24.803Z,84.26
2017-11-25T09:12:51.832Z,84.48
2017-11-25T09:15:18.567Z,84.71
2017-11-25T09:17:45.311Z,84.71
2017-11-25T09:20:12.265Z,84.74
2017-11-25T09:22:38.698Z,84.77
2017-11-25T09:25:05.176Z,84.65
2017-11-25T09:27:31.664Z,84.33
2017-11-25T09:29:58.695Z,83.47
2017-11-25T09:32:25.147Z,83.29
2017-11-25T09:34:51.715Z,83.61
2017-11-25T09:37:18.220Z,83.59
2017-11-25T09:39:44.970Z,84.53
2017-11-25T09:42:11.406Z,84.09
2017-11-25T09:44:37.935Z,84.16
2017-11-25T09:47:04.368Z,84.14
2017-11-25T09:49:30.892Z,84.14
2017-11-25T09:51:57.339Z,84.59
2017-11-25T09:54:23.956Z,84.92
2017-11-25T09:56:51.241Z,84.97
2017-11-25T09:59:17.703Z,85.52
2017-11-25T10:01:44.104Z,85.23
2017-11-25T10:04:10.540Z,85.01
2017-11-25T10:09:08.918Z,83.56
2017-11-25T10:11:35.369Z,83.11
2017-11-25T10:14:01.805Z,83.39
2017-11-25T10:16:28.342Z,83.56
2017-11-25T10:18:54.878Z,83.87
2017-11-25T10:21:21.327Z,83.65
2017-11-25T10:23:47.762Z,83.87
2017-11-25T10:26:14.285Z,82.99
2017-11-25T10:28:41.233Z,83.01
2017-11-25T10:31:07.667Z,82.79
2017-11-25T10:33:34.107Z,82.42
2017-11-25T10:36:00.535Z,82.60
2017-11-25T10:38:27.081Z,82.26
2017-11-25T10:40:53.514Z,82.12
2017-11-25T10:43:19.945Z,82.15
2017-11-25T10:45:46.395Z,82.22
2017-11-25T10:48:13.427Z,82.07
2017-11-25T10:50:40.037Z,81.99
2017-11-25T10:53:06.610Z,81.80
2017-11-25T10:55:33.555Z,81.77
2017-11-25T10:58:00.208Z,82.29
2017-11-25T11:00:26.727Z,83.05
2017-11-25T11:02:53.547Z,83.15
2017-11-25T11:05:20.515Z,83.21
2017-11-25T11:07:46.990Z,83.73
2017-11-25T11:10:13.581Z,83.87
2017-11-25T11:12:40.140Z,83.81
2017-11-25T11:15:06.667Z,83.58
2017-11-25T11:17:33.275Z,82.39
2017-11-25T11:20:00.258Z,82.73
2017-11-25T11:22:26.797Z,82.98
2017-11-25T11:24:53.334Z,83.19
2017-11-25T11:27:19.695Z,82.86
2017-11-25T11:29:46.614Z,82.91
2017-11-25T11:32:13.150Z,83.16
2017-11-25T11:34:40.088Z,83.03
2017-11-25T11:37:06.840Z,83.09
2017-11-25T11:39:33.475Z,83.16
2017-11-25T11:41:59.911Z,83.34
2017-11-25T11:44:26.338Z,83.26
2017-11-25T11:46:53.213Z,83.27
2017-11-25T11:49:19.683Z,83.76
2017-11-25T11:51:46.051Z,83.70
2017-11-25T11:54:12.383Z,83.32
2017-11-25T11:56:38.825Z,83.42
2017-11-25T11:59:05.347Z,83.40
2017-11-25T12:01:31.790Z,83.95
2017-11-25T12:03:58.122Z,84.60
2017-11-25T12:06:24.564Z,85.10
2017-11-25T12:08:51.195Z,85.14
2017-11-25T12:11:17.638Z,85.09
2017-11-25T12:13:44.073Z,84.87
2017-11-25T12:16:10.501Z,84.78
2017-11-25T12:18:37.030Z,84.55
2017-11-25T12:21:03.479Z,84.23
2017-11-25T12:23:29.905Z,84.28
2017-11-25T12:25:56.340Z,84.47
2017-11-25T12:28:23.272Z,84.36
2017-11-25T12:30:49.691Z,84.48
2017-11-25T12:33:16.162Z,84.72
2017-11-25T12:35:42.697Z,85.15
2017-11-25T12:38:09.231Z,85.08
2017-11-25T12:40:35.668Z,84.96
2017-11-25T12:43:02.616Z,84.94
2017-11-25T12:45:29.055Z,84.87
2017-11-25T12:47:55.592Z,85.03
2017-11-25T12:50:22.848Z,85.07
2017-11-25T12:52:49.373Z,85.09
2017-11-25T12:55:15.970Z,85.21
2017-11-25T12:57:42.443Z,85.46
2017-11-25T13:00:08.881Z,85.30
2017-11-25T13:02:35.319Z,85.29
2017-11-25T13:05:01.751Z,85.31
2017-11-25T13:07:28.188Z,85.02
2017-11-25T13:09:54.620Z,85.11
2017-11-25T13:12:21.055Z,85.55
2017-11-25T13:14:47.631Z,85.91
2017-11-25T13:17:13.996Z,86.31
2017-11-25T13:19:40.462Z,86.49
2017-11-25T13:22:06.998Z,86.68
2017-11-25T13:24:33.432Z,85.98
2017-11-25T13:26:59.868Z,86.44
2017-11-25T13:29:26.311Z,86.91
2017-11-25T13:31:52.736Z,87.18
2017-11-25T13:34:19.171Z,87.27
2017-11-25T13:36:45.580Z,86.99
2017-11-25T13:39:12.050Z,87.15
2017-11-25T13:41:38.894Z,87.10
2017-11-25T13:44:05.329Z,86.96
2017-11-25T13:46:32.585Z,87.29
2017-11-25T13:48:59.010Z,87.64
2017-11-25T13:51:25.452Z,87.60
2017-11-25T13:53:52.594Z,87.59
2017-11-25T13:56:19.029Z,87.45
2017-11-25T13:58:45.575Z,87.42
2017-11-25T14:01:12.009Z,87.25
2017-11-25T14:03:38.436Z,86.98
2017-11-25T14:06:04.870Z,86.70
2017-11-25T14:08:31.304Z,87.26
2017-11-25T14:10:57.747Z,87.43
2017-11-25T14:13:24.114Z,87.40
2017-11-25T14:15:50.814Z,87.13
2017-11-25T14:18:17.249Z,87.08
2017-11-25T14:20:43.750Z,87.00
2017-11-25T14:23:10.325Z,87.25
2017-11-25T14:25:36.757Z,87.58
2017-11-25T14:28:03.200Z,87.92
2017-11-25T14:30:29.597Z,88.21
2017-11-25T14:32:56.076Z,88.22
2017-11-25T14:35:22.607Z,88.21
2017-11-25T14:37:49.850Z,88.30
2017-11-25T14:40:16.293Z,88.40
2017-11-25T14:42:43.133Z,88.72
2017-11-25T14:45:10.392Z,88.85
2017-11-25T14:47:36.776Z,88.78
2017-11-25T14:50:03.220Z,88.48
2017-11-25T14:52:29.900Z,88.16
2017-11-25T14:54:56.337Z,87.92
2017-11-25T14:57:22.762Z,87.50
2017-11-25T14:59:49.196Z,87.40
2017-11-25T15:02:15.562Z,87.65
2017-11-25T15:04:41.963Z,87.54
2017-11-25T15:07:08.815Z,87.76
2017-11-25T15:09:35.249Z,87.60
2017-11-25T15:12:01.684Z,87.85
2017-11-25T15:14:28.119Z,87.92
2017-11-25T15:16:54.546Z,87.95
2017-11-25T15:19:20.982Z,88.01
2017-11-25T15:21:47.414Z,88.14
2017-11-25T15:24:14.259Z,88.19
2017-11-25T15:26:40.797Z,88.21
2017-11-25T15:29:07.235Z,88.38
2017-11-25T15:31:33.599Z,88.59
2017-11-25T15:33:59.978Z,89.11
2017-11-25T15:36:26.429Z,89.15
2017-11-25T15:38:52.867Z,89.15
2017-11-25T15:41:19.310Z,89.26
2017-11-25T15:43:45.739Z,89.19
2017-11-25T15:46:12.179Z,89.17
2017-11-25T15:48:38.606Z,89.23
2017-11-25T15:51:05.042Z,89.36
2017-11-25T15:53:31.474Z,89.46
2017-11-25T15:55:57.909Z,89.51
2017-11-25T15:58:24.353Z,89.58
2017-11-25T16:00:50.781Z,89.66
2017-11-25T16:03:17.216Z,89.74
2017-11-25T16:05:43.584Z,89.83
2017-11-25T16:08:09.943Z,89.79
2017-11-25T16:10:36.419Z,89.77
2017-11-25T16:13:02.851Z,89.80
2017-11-25T16:15:30.103Z,89.71
2017-11-25T16:17:56.537Z,89.67
2017-11-25T16:20:22.975Z,89.92
2017-11-25T16:22:49.409Z,90.00
2017-11-25T16:25:15.842Z,90.28
2017-11-25T16:27:42.276Z,90.32
2017-11-25T16:30:08.710Z,90.15
2017-11-25T16:32:35.871Z,90.14
2017-11-25T16:35:02.306Z,90.21
2017-11-25T16:37:28.735Z,90.24
2017-11-25T16:39:55.167Z,90.38
2017-11-25T16:42:21.534Z,90.52
2017-11-25T16:44:47.900Z,90.34
2017-11-25T16:47:14.379Z,90.25
2017-11-25T16:49:41.529Z,90.19
2017-11-25T16:52:07.958Z,90.35
2017-11-25T16:54:34.393Z,90.22
2017-11-25T16:57:00.823Z,90.12
2017-11-25T16:59:27.269Z,90.18
2017-11-25T17:01:53.691Z,90.33
2017-11-25T17:04:20.129Z,90.30
2017-11-25T17:06:47.286Z,90.30
2017-11-25T17:09:13.718Z,90.16
2017-11-25T17:11:40.155Z,90.21
2017-11-25T17:14:06.590Z,90.10
2017-11-25T17:16:33.025Z,90.00
2017-11-25T17:18:59.462Z,89.96
2017-11-25T17:21:25.885Z,90.08
2017-11-25T17:23:53.125Z,90.17
2017-11-25T17:26:19.543Z,90.15
2017-11-25T17:28:46.018Z,90.14
2017-11-25T17:31:12.409Z,90.15
2017-11-25T17:33:38.868Z,90.06
2017-11-25T17:36:05.312Z,90.27
2017-11-25T17:38:31.745Z,90.43
2017-11-25T17:40:58.907Z,90.40
2017-11-25T17:43:25.333Z,90.50
2017-11-25T17:45:51.788Z,90.62
2017-11-25T17:48:18.202Z,90.73
2017-11-25T17:50:44.740Z,90.81
2017-11-25T17:53:11.174Z,90.76
2017-11-25T17:55:37.544Z,90.35
2017-11-25T17:58:04.768Z,90.23
2017-11-25T18:00:31.203Z,90.35
2017-11-25T18:02:57.565Z,90.44
2017-11-25T18:05:23.960Z,90.46
2017-11-25T18:07:50.395Z,90.40
2017-11-25T18:10:16.934Z,90.16
2017-11-25T18:12:43.376Z,90.06
2017-11-25T18:15:10.518Z,90.06
2017-11-25T18:17:36.962Z,90.03
2017-11-25T18:20:03.387Z,90.07
2017-11-25T18:22:29.821Z,90.12
2017-11-25T18:24:56.257Z,89.98
2017-11-25T18:27:22.691Z,89.72
2017-11-25T18:29:49.128Z,89.50
2017-11-25T18:32:16.286Z,89.48
2017-11-25T18:34:42.713Z,89.58
2017-11-25T18:37:09.150Z,89.91
2017-11-25T18:39:35.515Z,90.10
2017-11-25T18:42:01.893Z,90.12
2017-11-25T18:44:28.247Z,90.34
2017-11-25T18:46:54.681Z,90.56
2017-11-25T18:49:21.925Z,90.21
2017-11-25T18:51:48.369Z,90.29
2017-11-25T18:54:14.805Z,90.28
2017-11-25T18:56:41.225Z,90.40
2017-11-25T18:59:07.643Z,90.48
2017-11-25T19:01:34.017Z,90.33
2017-11-25T19:04:00.447Z,90.32
2017-11-25T19:06:27.701Z,90.47
2017-11-25T19:08:54.129Z,90.65
2017-11-25T19:11:20.564Z,90.40
2017-11-25T19:13:47.002Z,90.52
2017-11-25T19:16:13.462Z,89.82
2017-11-25T19:18:39.984Z,90.17
2017-11-25T19:21:06.413Z,90.06
2017-11-25T19:23:33.670Z,90.10
2017-11-25T19:26:00.092Z,90.67
2017-11-25T19:28:26.527Z,91.09
2017-11-25T19:30:52.962Z,91.35
2017-11-25T19:33:19.396Z,91.52
2017-11-25T19:35:45.838Z,91.34
2017-11-25T19:38:12.265Z,91.10
2017-11-25T19:40:39.509Z,90.88
2017-11-25T19:43:05.926Z,91.01
2017-11-25T19:45:32.391Z,91.38
2017-11-25T19:47:58.940Z,91.57
2017-11-25T19:50:25.359Z,91.81
2017-11-25T19:52:51.802Z,91.68
2017-11-25T19:55:18.237Z,92.01
2017-11-25T19:57:45.514Z,92.10
2017-11-25T20:00:11.917Z,92.10
2017-11-25T20:02:38.352Z,91.98
2017-11-25T20:05:04.787Z,91.87
2017-11-25T20:07:31.231Z,92.05
2017-11-25T20:09:57.656Z,92.13
2017-11-25T20:12:24.091Z,91.82
2017-11-25T20:14:51.224Z,91.18
2017-11-25T20:17:17.676Z,91.61
2017-11-25T20:19:44.109Z,91.88
2017-11-25T20:22:10.658Z,91.91
2017-11-25T20:24:37.085Z,91.95
2017-11-25T20:27:03.517Z,92.09
2017-11-25T20:29:29.951Z,91.89
2017-11-25T20:31:57.103Z,91.70
2017-11-25T20:34:23.538Z,91.74
2017-11-25T20:36:49.973Z,91.34
2017-11-25T20:39:16.416Z,91.26
2017-11-25T20:41:42.849Z,91.44
2017-11-25T20:44:09.277Z,91.09
2017-11-25T20:46:35.711Z,90.96
2017-11-25T20:49:02.863Z,91.27
2017-11-25T20:51:29.288Z,90.99
2017-11-25T20:53:55.720Z,91.16
2017-11-25T20:56:22.167Z,90.88
2017-11-25T20:58:48.600Z,90.80
2017-11-25T21:01:15.030Z,90.78
2017-11-25T21:03:41.470Z,90.78
2017-11-25T21:06:08.727Z,91.26
2017-11-25T21:08:35.159Z,91.61
2017-11-25T21:11:01.526Z,92.01
2017-11-25T21:13:27.934Z,91.98
2017-11-25T21:15:54.360Z,91.22
2017-11-25T21:18:20.906Z,91.08
2017-11-25T21:20:47.332Z,91.32
2017-11-25T21:23:14.485Z,91.70
2017-11-25T21:25:40.930Z,92.16
2017-11-25T21:28:07.352Z,92.47
2017-11-25T21:30:33.795Z,92.42
2017-11-25T21:33:00.221Z,92.20
2017-11-25T21:35:26.663Z,91.99
2017-11-25T21:37:53.093Z,91.96
2017-11-25T21:40:20.246Z,91.79
2017-11-25T21:42:46.679Z,90.89
2017-11-25T21:45:13.122Z,91.21
2017-11-25T21:47:39.478Z,91.46
2017-11-25T21:50:05.990Z,90.70
2017-11-25T21:52:32.425Z,91.03
2017-11-25T21:54:58.952Z,91.21
2017-11-25T21:57:26.089Z,91.52
2017-11-25T21:59:52.509Z,91.40
2017-11-25T22:02:18.972Z,91.30
2017-11-25T22:04:45.416Z,91.38
2017-11-25T22:07:11.845Z,90.89
2017-11-25T22:09:38.172Z,90.87
2017-11-25T22:12:04.719Z,90.97
2017-11-25T22:14:31.872Z,90.79
2017-11-25T22:16:58.298Z,90.25
2017-11-25T22:19:24.742Z,90.09
2017-11-25T22:21:51.172Z,90.20
2017-11-25T22:24:17.604Z,90.29
2017-11-25T22:26:44.036Z,90.69
2017-11-25T22:29:10.472Z,90.73
2017-11-25T22:31:37.727Z,90.37
2017-11-25T22:34:04.159Z,90.17
2017-11-25T22:36:30.708Z,90.20
2017-11-25T22:38:57.142Z,90.36
2017-11-25T22:41:23.499Z,90.12
2017-11-25T22:43:49.907Z,90.23
2017-11-25T22:46:16.333Z,90.35
2017-11-25T22:48:43.594Z,90.47
2017-11-25T22:51:10.029Z,90.66
2017-11-25T22:53:36.456Z,90.83
2017-11-25T22:56:02.889Z,91.29
2017-11-25T22:58:29.332Z,91.78
2017-11-25T23:00:55.759Z,91.83
2017-11-25T23:03:22.193Z,91.84
2017-11-25T23:05:49.353Z,91.87
2017-11-25T23:08:15.779Z,91.85
2017-11-25T23:10:42.111Z,91.71
2017-11-25T23:13:08.648Z,91.46
2017-11-25T23:15:35.091Z,91.49
2017-11-25T23:18:01.450Z,91.56
2017-11-25T23:20:27.961Z,91.58
2017-11-25T23:22:55.112Z,91.71
2017-11-25T23:25:21.477Z,91.80
2017-11-25T23:27:47.870Z,91.96
2017-11-25T23:30:14.304Z,92.09
2017-11-25T23:32:40.748Z,92.13
2017-11-25T23:35:07.179Z,92.25
2017-11-25T23:37:33.617Z,92.10
2017-11-25T23:40:00.863Z,91.79
2017-11-25T23:42:27.307Z,91.82
2017-11-25T23:44:53.740Z,91.82
2017-11-25T23:47:20.175Z,92.00
2017-11-25T23:49:46.610Z,92.10
2017-11-25T23:52:13.044Z,92.25
2017-11-25T23:54:39.439Z,92.29
2017-11-25T23:57:06.727Z,92.21
2017-11-25T23:59:33.160Z,92.20
